Ce_breeze — ELSQ7 — position and weather

sailwx.info

Track history (hours):
 
Tides and Currents Weather Stations Pressure Air Temp Water Temp Dewpoint Dewpoint Depression Visibility Wind Speed Wind Dir Waves Ship Positions

Ce_breeze

Last reported at 2017-Mar-26 02:24 UTC. Time now 2017-Mar-28 06:19 UTC.
Position N 39°48' E 025°55'.

Length 240 m; draft 8 m.

Type: Tanker. MMSI: 636010400.

Date/timePositionNaut miles runAvg speedWind from/ knotsBaromVisibWave heightAir tempDewpointWater temp
2017-Mar-26 02:24N 39°48' E 025°55'2 0.2
2017-Mar-25 14:27N 39°46' E 025°54'13412.1
2017-Mar-25 03:22N 37°48' E 024°32'1012.7
2017-Mar-25 02:33N 37°44' E 024°20'1312.2
2017-Mar-25 01:32N 37°35' E 024°08'1212.4
2017-Mar-25 00:33N 37°36' E 023°53'1211.9
2017-Mar-24 23:33N 37°43' E 023°41'1110.7
2017-Mar-24 22:33N 37°51' E 023°32'0 0.5
2017-Mar-24 21:33N 37°51' E 023°32'0 0.0
2017-Mar-24 20:33N 37°51' E 023°32'0 0.0
2017-Mar-24 19:33N 37°51' E 023°32'0 0.1
2017-Mar-24 18:34N 37°51' E 023°32'5 5.1
2017-Mar-24 17:33N 37°55' E 023°36'6 6.0
2017-Mar-24 16:33N 38°01' E 023°35'1 1.1
2017-Mar-24 15:33N 38°01' E 023°36'0 0.0
2017-Mar-24 14:33N 38°01' E 023°36'0 0.0
2017-Mar-24 13:33N 38°01' E 023°36'0 0.0
2017-Mar-24 12:33N 38°01' E 023°36'0 0.0
2017-Mar-24 11:30N 38°01' E 023°36'0 0.0
2017-Mar-24 10:33N 38°01' E 023°36'0 0.0
2017-Mar-24 09:33N 38°01' E 023°36'0 0.0
2017-Mar-24 08:33N 38°01' E 023°36'0 0.0
2017-Mar-24 07:33N 38°01' E 023°36'0 0.0
2017-Mar-24 06:33N 38°01' E 023°36'0 0.0
2017-Mar-24 05:33N 38°01' E 023°36'0 0.0
2017-Mar-24 04:33N 38°01' E 023°36'0 0.0
2017-Mar-24 03:33N 38°01' E 023°36'0 0.0
2017-Mar-24 02:33N 38°01' E 023°36'0 0.0
2017-Mar-24 01:33N 38°01' E 023°36'0 0.0
2017-Mar-24 00:33N 38°01' E 023°36'0 0.0
2017-Mar-23 23:33N 38°01' E 023°36'0 0.0
2017-Mar-23 22:33N 38°01' E 023°36'0 0.0
2017-Mar-23 21:33N 38°01' E 023°36'0 0.0
2017-Mar-23 20:33N 38°01' E 023°36'0 0.0
2017-Mar-23 19:30N 38°01' E 023°36'0 0.0
2017-Mar-23 18:33N 38°01' E 023°36'0 0.0
2017-Mar-23 17:33N 38°01' E 023°36'0 0.0
2017-Mar-23 16:33N 38°01' E 023°36'0 0.0
2017-Mar-23 15:33N 38°01' E 023°36'0 0.0
2017-Mar-23 14:29N 38°01' E 023°36'0 0.0
2017-Mar-23 13:32N 38°01' E 023°36'0 0.0
2017-Mar-23 12:29N 38°01' E 023°36'0 0.0
2017-Mar-23 11:32N 38°01' E 023°36'0 0.0
2017-Mar-23 10:32N 38°01' E 023°36'0 0.0
2017-Mar-23 09:32N 38°01' E 023°36'0 0.0
2017-Mar-23 08:32N 38°01' E 023°36'0 0.0
2017-Mar-23 07:32N 38°01' E 023°36'0 0.0
2017-Mar-23 06:29N 38°01' E 023°36'0 0.0
2017-Mar-23 05:32N 38°01' E 023°36'0 0.0
2017-Mar-23 04:32N 38°01' E 023°36'0 0.0
2017-Mar-23 03:29N 38°01' E 023°36'0 0.0
2017-Mar-23 02:32N 38°01' E 023°36'0 0.0
2017-Mar-23 01:32N 38°01' E 023°36'0 0.0
2017-Mar-23 00:32N 38°01' E 023°36'0 0.0
2017-Mar-22 23:32N 38°01' E 023°36'0 0.0
2017-Mar-22 22:32N 38°01' E 023°36'0 0.0
2017-Mar-22 21:32N 38°01' E 023°36'0 0.0
2017-Mar-22 20:32N 38°01' E 023°36'0 0.0
2017-Mar-22 19:32N 38°01' E 023°36'0 0.0
2017-Mar-22 18:32N 38°01' E 023°36'0 0.0
2017-Mar-22 17:32N 38°01' E 023°36'0 0.0
2017-Mar-22 16:33N 38°01' E 023°36'4 3.7
2017-Mar-22 15:33N 37°58' E 023°33'8 3.6
2017-Mar-22 13:20N 37°52' E 023°39'6 7.3
2017-Mar-22 12:34N 37°47' E 023°42'  
Track history (hours):
 
Tides and Currents Weather Stations Pressure Air Temp Water Temp Dewpoint Dewpoint Depression Visibility Wind Speed Wind Dir Waves Ship Positions

Ce_breeze

Last reported at 2017-Mar-26 02:24 UTC. Time now 2017-Mar-28 06:19 UTC.
Position N 39°48' E 025°55'.

Length 240 m; draft 8 m.

Type: Tanker. MMSI: 636010400.

Date/timePositionNaut miles runAvg speedWind from/ knotsBaromVisibWave heightAir tempDewpointWater temp
2017-Mar-26 02:24N 39°48' E 025°55'2 0.2
2017-Mar-25 14:27N 39°46' E 025°54'13412.1
2017-Mar-25 03:22N 37°48' E 024°32'1012.7
2017-Mar-25 02:33N 37°44' E 024°20'1312.2
2017-Mar-25 01:32N 37°35' E 024°08'1212.4
2017-Mar-25 00:33N 37°36' E 023°53'1211.9
2017-Mar-24 23:33N 37°43' E 023°41'1110.7
2017-Mar-24 22:33N 37°51' E 023°32'0 0.5
2017-Mar-24 21:33N 37°51' E 023°32'0 0.0
2017-Mar-24 20:33N 37°51' E 023°32'0 0.0
2017-Mar-24 19:33N 37°51' E 023°32'0 0.1
2017-Mar-24 18:34N 37°51' E 023°32'5 5.1
2017-Mar-24 17:33N 37°55' E 023°36'6 6.0
2017-Mar-24 16:33N 38°01' E 023°35'1 1.1
2017-Mar-24 15:33N 38°01' E 023°36'0 0.0
2017-Mar-24 14:33N 38°01' E 023°36'0 0.0
2017-Mar-24 13:33N 38°01' E 023°36'0 0.0
2017-Mar-24 12:33N 38°01' E 023°36'0 0.0
2017-Mar-24 11:30N 38°01' E 023°36'0 0.0
2017-Mar-24 10:33N 38°01' E 023°36'0 0.0
2017-Mar-24 09:33N 38°01' E 023°36'0 0.0
2017-Mar-24 08:33N 38°01' E 023°36'0 0.0
2017-Mar-24 07:33N 38°01' E 023°36'0 0.0
2017-Mar-24 06:33N 38°01' E 023°36'0 0.0
2017-Mar-24 05:33N 38°01' E 023°36'0 0.0
2017-Mar-24 04:33N 38°01' E 023°36'0 0.0
2017-Mar-24 03:33N 38°01' E 023°36'0 0.0
2017-Mar-24 02:33N 38°01' E 023°36'0 0.0
2017-Mar-24 01:33N 38°01' E 023°36'0 0.0
2017-Mar-24 00:33N 38°01' E 023°36'0 0.0
2017-Mar-23 23:33N 38°01' E 023°36'0 0.0
2017-Mar-23 22:33N 38°01' E 023°36'0 0.0
2017-Mar-23 21:33N 38°01' E 023°36'0 0.0
2017-Mar-23 20:33N 38°01' E 023°36'0 0.0
2017-Mar-23 19:30N 38°01' E 023°36'0 0.0
2017-Mar-23 18:33N 38°01' E 023°36'0 0.0
2017-Mar-23 17:33N 38°01' E 023°36'0 0.0
2017-Mar-23 16:33N 38°01' E 023°36'0 0.0
2017-Mar-23 15:33N 38°01' E 023°36'0 0.0
2017-Mar-23 14:29N 38°01' E 023°36'0 0.0
2017-Mar-23 13:32N 38°01' E 023°36'0 0.0
2017-Mar-23 12:29N 38°01' E 023°36'0 0.0
2017-Mar-23 11:32N 38°01' E 023°36'0 0.0
2017-Mar-23 10:32N 38°01' E 023°36'0 0.0
2017-Mar-23 09:32N 38°01' E 023°36'0 0.0
2017-Mar-23 08:32N 38°01' E 023°36'0 0.0
2017-Mar-23 07:32N 38°01' E 023°36'0 0.0
2017-Mar-23 06:29N 38°01' E 023°36'0 0.0
2017-Mar-23 05:32N 38°01' E 023°36'0 0.0
2017-Mar-23 04:32N 38°01' E 023°36'0 0.0
2017-Mar-23 03:29N 38°01' E 023°36'0 0.0
2017-Mar-23 02:32N 38°01' E 023°36'0 0.0
2017-Mar-23 01:32N 38°01' E 023°36'0 0.0
2017-Mar-23 00:32N 38°01' E 023°36'0 0.0
2017-Mar-22 23:32N 38°01' E 023°36'0 0.0
2017-Mar-22 22:32N 38°01' E 023°36'0 0.0
2017-Mar-22 21:32N 38°01' E 023°36'0 0.0
2017-Mar-22 20:32N 38°01' E 023°36'0 0.0
2017-Mar-22 19:32N 38°01' E 023°36'0 0.0
2017-Mar-22 18:32N 38°01' E 023°36'0 0.0
2017-Mar-22 17:32N 38°01' E 023°36'0 0.0
2017-Mar-22 16:33N 38°01' E 023°36'4 3.7
2017-Mar-22 15:33N 37°58' E 023°33'8 3.6
2017-Mar-22 13:20N 37°52' E 023°39'6 7.3
2017-Mar-22 12:34N 37°47' E 023°42'  

Dump ship's entire track history